the time You need

Raid dei Colli Ozzanesi

Ozzano dell'Emilia, Bologna   Italy

domenica 09 settembre 2018

Percorsi

LUNGO - 32.0 Km

 

CORTO - 15.0 Km

Servizi

ADSCOSTPunti KS Ranking

Chip

Circuiti

Romagna Bike Cup

Ente

UISP

CLASSIFICA

LUNGO - 32.0 Km

Pos Atleta Sesso Cat PosC Team Tempo Media RTime
DNF GARAGNANI LOREDANO M M7 - VERNIA BIKE TEAM ASD 03:08:01.96 10,21 03:08:01.96
1 ACCORDI LUCA M ELMT 1 TEAM PASSION FAENTINA 01:24:02.20 22,85 01:24:02.20
2 CAPPELLI ALEX M M1 1 ASD FRECCE ROSSE RIMINI 01:25:49.20 22,37 01:25:49.20
3 FABBRI CHRISTIAN M M3 1 TEAM PASSION FAENTINA 01:26:32.50 22,19 01:26:32.50
4 TEDESCHI DAMIANO M M1 2 TEAM K-ONE ASD 01:26:35.00 22,18 01:26:35.00
5 PUGLISI DANIELE M ELMT 2 ASD BLACK ROAD 01:26:39.40 22,16 01:26:39.40
6 ZAMA LORENZO M M1 3 TEAM PASSION FAENTINA 01:27:48.20 21,87 01:27:48.20
7 BANDINI GIACOMO M ELMT 3 TEAM PASSION FAENTINA 01:28:21.20 21,73 01:28:21.20
8 CHIARINI LUCA M M3 2 ASD IMOLA BIKE 01:28:22.50 21,73 01:28:22.50
9 GHELARDONI ANDREA M M1 4 FRM FACTORY RACING TEAM ASD 01:29:21.70 21,49 01:29:21.70
10 GALAMINI MAURIZIO M M5 1 BARACCA LUGO MTB 01:29:38.50 21,42 01:29:38.50
11 RENZI NICOLA M M4 1 PROBIKERS 01:29:45.20 21,39 01:29:45.20
12 RAGGI FABIO M M2 1 GOOD BIKE AS RONCOFREDDESE 01:29:48.50 21,38 01:29:48.50
13 BUSSI SIMONE M M3 3 AVIS PRATOVECCHIO-ERREPI-LEE COUGAN 01:29:50.70 21,37 01:29:50.70
14 AMARANTI FEDERICO M ELMT 4 ASD LR BIKE TEAM 01:30:41.70 21,17 01:30:41.70
15 MANIGRASSO GIOVANNI M M4 2 ASD IMOLA BIKE 01:31:21.70 21,02 01:31:21.70
16 FIORINI FABIO M M5 2 KTM FORTI E LIBERI 01:31:23.50 21,01 01:31:23.50
17 CORSETTI FRANCESCO M M2 2 AVIS PRATOVECCHIO-ERREPI-LEE COUGAN 01:31:24.50 21,01 01:31:24.50
18 GUGLIELMI MATTEO M M4 3 TEAM BIKE COCIF.COM ASD 01:31:26.40 21,00 01:31:26.40
19 GUIDI MIRCO M M3 4 PEPPERBIKE TEAM 01:31:28.50 20,99 01:31:28.50
20 CANESTRINI LORIS M M5 3 COMERO BIKE 01:31:41.40 20,94 01:31:41.40
21 TINI STEFANO M M3 5 TEAM BIKE INNOVATION FOCUS ROSTI 01:31:43.20 20,93 01:31:43.20
22 PELLEGRINO PARIDE M M4 4 TEAM TORPEDO BIKE 01:31:43.70 20,93 01:31:43.70
23 DI PARDO MASSIMO M M3 6 ASDC VALLE DEL CONCA NORDIC WALKING 01:32:06.70 20,85 01:32:06.70
24 COLLINI FRANCESCO M M1 5 GS BULGARNO´ BIKE 2008 01:32:41.40 20,72 01:32:41.40
25 ALPI DEVIS M M2 3 ASD TOSCO-ROMAGNOLA 01:32:47.00 20,69 01:32:47.00
26 ANCARANI ALESSIO M M1 6 TEAM PASSION FAENTINA 01:32:55.70 20,66 01:32:55.70
27 PRETOLANI TIBERIO M M5 4 ASD IMOLA BIKE 01:33:18.50 20,58 01:33:18.50
28 RENNA SABINO M M1 7 B´TWIN RACING TEAM DECATHLON ITALIA 01:33:49.60 20,47 01:33:49.60
29 MORDINI MARCO M M1 8 UISP BOLOGNA 01:33:50.00 20,46 01:33:50.00
30 CECCHI FRANCESCO M M2 4 SCORPION BIKE MTB 01:33:50.60 20,46 01:33:50.60
31 NALDINI FABIO M M1 9 180 BPM 01:34:52.20 20,24 01:34:52.20
32 GIANOTTI FEDERICO M M4 5 BAMBANA BIKE 01:35:17.50 20,15 01:35:17.50
33 FANTINI FABIO M M2 5 ASDC VALLE DEL CONCA NORDIC WALKING 01:35:49.80 20,04 01:35:49.80
34 FANTINI MASSIMILIANO M M4 6 TEAM K-ONE ASD 01:35:50.50 20,03 01:35:50.50
35 CEREDI DANIELE M M3 7 ESSERE ASD ARL 01:35:51.60 20,03 01:35:51.60
36 CAVICCHI CRISTIAN M M4 7 POL. YOUNG LINE 01:36:37.20 19,87 01:36:37.20
37 TRONCONI NICOLO´ M ELMT 5 USC CASTEL BOLOGNESE 01:36:42.00 19,86 01:36:42.00
38 BORTOLANI ANDREA M M6 1 VERNIA BIKE TEAM ASD 01:37:03.30 19,78 01:37:03.30
39 CARPINETI EDDY M M3 8 TEAM PASSION FAENTINA 01:37:50.30 19,63 01:37:50.30
40 VALLICELLI MIRKO M M3 9 TEAM PASSION FAENTINA 01:37:52.00 19,62 01:37:52.00
41 ROSSI ANDREA M M5 5 BARACCA LUGO MTB 01:37:53.00 19,62 01:37:53.00
42 GREGORI DANIELE M M4 8 COMERO BIKE 01:37:54.20 19,61 01:37:54.20
43 SANTI DANILO M M4 9 PANIGALESE 01:37:54.30 19,61 01:37:54.30
44 SARTI FILIPPO M M4 10 ASD SAMBI TEAM 01:37:55.80 19,61 01:37:55.80
45 EUSEBI LORENZO M ELMT 6 PROBIKERS 01:38:03.50 19,58 01:38:03.50
46 FUSARI LEONARDO M M3 10 360 BIKE TEAM 01:38:18.00 19,53 01:38:18.00
47 PELLICCIONI MICHELE M M2 6 ASD VALMARACING TEAM 01:38:36.80 19,47 01:38:36.80
48 ROSTI SIMONE M M1 10 ASS. TEAM PENNAROSSA 01:38:54.40 19,41 01:38:54.40
49 REGGIANINI CLAUDIO M M2 7 VERNIA BIKE TEAM ASD 01:39:12.30 19,35 01:39:12.30
50 MAURO EMANUELE M ELMT 7 TEAM PASSION FAENTINA 01:39:21.50 19,33 01:39:21.50
51 MAMBELLI MARINO M M7 1 ASD TEAM COMACO 01:39:53.50 19,22 01:39:53.50
52 FENATI GIANLUCA M M4 11 BICI CASTEL DEL RIO ASD 01:39:55.00 19,22 01:39:55.00
53 BELLINI IVAN M M4 12 TEAM BIKE INNOVATION FOCUS ROSTI 01:39:57.00 19,21 01:39:57.00
54 FABBRI MAURO M M5 6 TEAM BIKE COCIF.COM ASD 01:40:14.30 19,16 01:40:14.30
55 SALVATORI STEFANO M M6 2 KTM FORTI E LIBERI 01:40:26.80 19,12 01:40:26.80
56 RICEPUTI LUCA M M3 11 ESSERE ASD ARL 01:40:46.30 19,05 01:40:46.30
57 CACCHI LUCA M JUN 1 SPORT TIME SSD A.R.L 01:41:14.30 18,97 01:41:14.30
58 BIANCHINI GIORGIO M M6 3 BAMBANA BIKE 01:41:56.50 18,84 01:41:56.50
59 CAVIOLI DANIELE M M2 8 ASD LE SALINE NATURA E SPORT 01:42:01.00 18,82 01:42:01.00
60 MAZZINI MARCO M M4 13 BAMBANA BIKE 01:42:03.00 18,81 01:42:03.00
61 REGAZZI ALBERTO M M4 14 ASD GREEN DEVILS 01:42:03.20 18,81 01:42:03.20
62 GRECO MARCO M M5 7 ASD IMOLA BIKE 01:42:03.50 18,81 01:42:03.50
63 CAMPIDELLI SAURO M M6 4 ASD BLACK ROAD 01:42:05.00 18,81 01:42:05.00
64 GASTALDI ELISA F MW1 1 TEAM PASSION FAENTINA 01:42:42.50 18,70 01:42:42.50
65 RAGOZZINO PAOLO M M1 11 LA BOTTEGA CASINALBO 01:43:03.50 18,63 01:43:03.50
66 FREGNANI SAURO M M3 12 BD FAST 01:43:03.80 18,63 01:43:03.80
67 CAPANNA STEFANO M M2 9 ASD OPICS SAN VITO - LGL BIKE TEAM 01:43:06.40 18,62 01:43:06.40
68 COZZOLINO CLAUDIO M M3 13 ASD TEAM COMACO 01:43:15.80 18,60 01:43:15.80
69 TASSI GIANLUCA M M4 15 TEAM K-ONE ASD 01:43:48.00 18,50 01:43:48.00
70 CAPPELLI ALESSANDRO M ELMT 8 ASD FOUR ES RACING TEAM 01:43:56.70 18,47 01:43:56.70
71 MOLENAARS PATRICK M M5 8 WTC DE AMSTEL 01:44:00.50 18,46 01:44:00.50
72 GIOVANNARDI SIMONE M M3 14 INDIVIDUALE 01:45:23.80 18,22 01:45:23.80
73 CONFICONI SAMUELE M M4 16 KTM FORTI E LIBERI 01:45:28.00 18,20 01:45:28.00
74 TORTOLANI UGO M M4 17 POL. YOUNG LINE 01:45:32.80 18,19 01:45:32.80
75 PIOGGIA LUCA M M3 15 POL. YOUNG LINE 01:45:34.90 18,19 01:45:34.90
76 MAGRINI STEFANO M M6 5 TEAM PASSION FAENTINA 01:45:37.10 18,18 01:45:37.10
77 PRUNI PAOLO M M5 9 KTM FORTI E LIBERI 01:45:41.30 18,17 01:45:41.30
78 SANCHEZ TORQUATI RODRIGO JAVIER M M2 10 TEAM PASSION FAENTINA 01:45:46.50 18,15 01:45:46.50
79 CHIARADIA TULLIO M M3 16 180 BPM 01:46:26.00 18,04 01:46:26.00
80 DI MOTTA MICHAEL M ELMT 9 TEAM K-ONE ASD 01:46:32.30 18,02 01:46:32.30
81 FABBRI DOMENICO M M6 6 ROMAGNA BIKE GRANDI EVENTI 01:46:52.20 17,97 01:46:52.20
82 CASTELLUCCI STEFANO M M4 18 180 BPM 01:47:02.60 17,94 01:47:02.60
83 GRANDI SAMUELE M M1 12 ASD IMOLA BIKE 01:47:25.00 17,87 01:47:25.00
84 CASTELLARI VALERIO M M5 10 ASD LR BIKE TEAM 01:47:26.20 17,87 01:47:26.20
85 ALDROVANDI ALESSIO M M1 13 ASD LR BIKE TEAM 01:47:27.70 17,87 01:47:27.70
86 NERI FABIO M M5 11 ASD TOSCO-ROMAGNOLA 01:47:34.80 17,85 01:47:34.80
87 FERRETTO LUCA M M2 11 TEAM K-ONE ASD 01:47:43.80 17,82 01:47:43.80
88 MARTINI STEFANO M M3 17 ASD IMOLA BIKE 01:47:56.40 17,79 01:47:56.40
89 MANTOVANI LUCA M M5 12 BAMBANA BIKE 01:48:17.70 17,73 01:48:17.70
90 NANNI LUCA M M1 14 HOBBY BIKE CLUB MTB 01:48:18.80 17,73 01:48:18.80
91 BRINI MATTEO M M2 12 RUPEX ASD 01:48:21.00 17,72 01:48:21.00
92 ALTAMURA PAOLO M M5 13 BAMBANA BIKE 01:48:21.20 17,72 01:48:21.20
93 AMADASI ENRICO M M7 2 BAMBANA BIKE 01:48:32.10 17,69 01:48:32.10
94 ZATTIN STEFANO M ELMT 10 RUPEX ASD 01:49:04.20 17,60 01:49:04.20
95 RONCASSAGLIA GABRIELE M M4 19 BAMBANA BIKE 01:49:10.60 17,59 01:49:10.60
96 MAZZOLI LEONARDO M M3 18 COMERO BIKE 01:49:19.00 17,56 01:49:19.00
97 RUGGIERO BRUNO M M6 7 TEAM PASSION FAENTINA 01:50:11.80 17,43 01:50:11.80
98 VISANI MIRIA F MW2 1 OSTERIA BIKE ASD 01:50:25.10 17,39 01:50:25.10
99 PEDROSI CRISTIAN M M3 19 ASD BLACK ROAD 01:50:27.80 17,38 01:50:27.80
100 FAVA GRAZIANO M M4 20 BC STAR 01:50:42.30 17,34 01:50:42.30
101 MINIELLO LEO M M2 13 TEAM BIKE COCIF.COM ASD 01:50:53.10 17,32 01:50:53.10
102 FABBRI FABIO M M6 8 180 BPM 01:51:21.10 17,24 01:51:21.10
103 BATTELLI SIMONE M M3 20 ASDC VALLE DEL CONCA NORDIC WALKING 01:51:37.50 17,20 01:51:37.50
104 BURZACCA ANDREA M M6 9 SURFING SHOP SPORT PROMOTION 01:51:40.30 17,19 01:51:40.30
105 BABINI GIOVANNI M M6 10 TEAM PASSION FAENTINA 01:52:30.30 17,07 01:52:30.30
106 RIGHINI MAURIZIO M M3 21 CICLISTICA MEDICINA 1912 01:52:37.70 17,05 01:52:37.70
107 GREGORI ANTONIO M M6 11 COMERO BIKE 01:52:40.80 17,04 01:52:40.80
108 GNOLI LORIS M M2 14 CICLI MATTEONI - BIANCHI 01:53:37.80 16,90 01:53:37.80
109 TEDESCHI ALBERTO M M2 15 UISP COMITATO TERRITORIALE BOLOGNA 01:53:39.60 16,89 01:53:39.60
110 ZIOTTI CRISTIANO M M3 22 ASD IMOLA BIKE 01:53:41.00 16,89 01:53:41.00
111 TARABUSI GIULIANO M M5 14 TEAM K-ONE ASD 01:53:45.10 16,88 01:53:45.10
112 PETTAZZONI DAVIDE M M5 15 BAMBANA BIKE 01:53:50.60 16,87 01:53:50.60
113 BELLETTINI MICHELE M ELMT 11 ASD ADRIA BIKE 01:53:53.00 16,86 01:53:53.00
114 RIGHETTI PIETRO M M7 3 BAMBANA BIKE 01:54:13.10 16,81 01:54:13.10
115 MEDRI FRANCESCO M M5 16 BARACCA LUGO MTB 01:54:16.60 16,80 01:54:16.60
116 CASAROLI RICCARDO M M1 15 BIKENGARAGE ASD 01:54:18.50 16,80 01:54:18.50
117 PASOLINI DANIELE M JUN 2 ASD LE SALINE NATURA E SPORT 01:54:23.80 16,79 01:54:23.80
118 CHELLI DENIS M M1 16 BAMBANA BIKE 01:54:24.80 16,78 01:54:24.80
119 ARCIDIACONO FEDERICO M ELMT 12 POL. YOUNG LINE 01:54:54.00 16,71 01:54:54.00
120 PARA MASSIMO M M5 17 COMERO BIKE 01:55:17.40 16,65 01:55:17.40
121 PLAZZI LUCA M M3 23 GS DOSI IMOLA 01:55:27.10 16,63 01:55:27.10
122 MESSINA GIUSEPPE M M6 12 BAMBANA BIKE 01:55:28.30 16,63 01:55:28.30
123 SARDEGNA THOMAS M M1 17 BIKENGARAGE ASD 01:55:34.90 16,61 01:55:34.90
124 CHIOSSONE CRISTIAN M M1 18 TEAM K-ONE ASD 01:55:40.30 16,60 01:55:40.30
125 MUNERATI DONATO M M5 18 IEMA MTB TEAM 01:56:53.50 16,43 01:56:53.50
126 BISSIONI LORENZO M M7 4 TEAM TORPEDO BIKE 01:57:09.30 16,39 01:57:09.30
127 CESARINI FRANCESCO M M4 21 ASD VALMARACING TEAM 01:57:09.30 16,39 01:57:09.30
128 ZANIBONI CARLO M M4 22 MTB LA RUPE 01:57:52.70 16,29 01:57:52.70
129 BABINA GABRIELE M M5 19 IEMA MTB TEAM 01:57:55.60 16,28 01:57:55.60
130 NALDONI LUCA M M1 19 ASD TOSCO-ROMAGNOLA 01:57:56.10 16,28 01:57:56.10
131 BARTOLINI VALERIA F MW2 2 TEAM TORPEDO BIKE 01:58:10.30 16,25 01:58:10.30
132 AMADUCCI ROBERTO M M7 5 180 BPM 01:58:13.80 16,24 01:58:13.80
133 TERZIARI ALBERTO M M5 20 POL. YOUNG LINE 01:58:35.60 16,19 01:58:35.60
134 TONELLI ROBERTO M M7 6 COMERO BIKE 01:58:38.10 16,18 01:58:38.10
135 FERRI MAURO M M7 7 BAMBANA BIKE 01:58:39.30 16,18 01:58:39.30
136 MOLARI MATTIA M M2 16 CICLI MATTEONI - BIANCHI 01:58:40.80 16,18 01:58:40.80
137 CIMMINO ROBERTO M M4 23 ASDC VALLE DEL CONCA NORDIC WALKING 01:59:26.60 16,08 01:59:26.60
138 ZAMBONI MICHELE M M2 17 TEAM K-ONE ASD 01:59:30.40 16,07 01:59:30.40
139 RAMBELLI ANDREA M M5 21 UISP BOLOGNA 01:59:33.90 16,06 01:59:33.90
140 SASDELLI MICHELE M M4 24 BAMBANA BIKE 01:59:42.60 16,04 01:59:42.60
141 RAVAIOLI ROBERTO M M5 22 180 BPM 02:00:05.70 15,99 02:00:05.70
142 NANNETTI ALBERTO M M3 24 180 BPM 02:00:42.60 15,91 02:00:42.60
143 MERZI STEFANO M M6 13 WWB ASD 02:00:49.60 15,89 02:00:49.60
144 BUDELACCI MIRCO M M3 25 BAD SKULL ASD 02:01:12.30 15,84 02:01:12.30
145 TERRANOVA MASSIMO M M5 23 OSTERIA BIKE ASD 02:01:36.90 15,79 02:01:36.90
146 COLLINI ANGELO M M3 26 VENTURI ADVENTURE TEAM 02:01:44.60 15,77 02:01:44.60
147 SABBATANI ILARIA F MW1 2 TEAM BIKE INNOVATION FOCUS ROSTI 02:01:50.30 15,76 02:01:50.30
148 MAGLIO SANDRO M M4 25 ASD LR BIKE TEAM 02:01:50.30 15,76 02:01:50.30
149 MARZOCCHI LORENZO M ELMT 13 ASD LR BIKE TEAM 02:03:11.30 15,59 02:03:11.30
150 TOSCHI BENEDETTA F MW1 3 POL. YOUNG LINE 02:03:14.10 15,58 02:03:14.10
151 GALETTI MARCO M M2 18 ASD C.C. M.LLO GIUSEPPE CAVAGNERO 02:03:15.90 15,58 02:03:15.90
152 CAVULLA ANNARITA F MW2 3 ASD IMOLA BIKE 02:05:40.60 15,28 02:05:40.60
153 COLOMBO ROBERTO M M5 24 BARACCA LUGO MTB 02:05:41.10 15,28 02:05:41.10
154 BEDETTI MAURIZIO M M3 27 CICLI MATTEONI - BIANCHI 02:05:44.60 15,27 02:05:44.60
155 GAMBERINI GIANCARLO M M6 14 POLISPORTIVA TOZZONA 02:05:59.40 15,24 02:05:59.40
156 GAVANELLI LORENZO M M2 19 POL. YOUNG LINE 02:06:19.10 15,20 02:06:19.10
157 CICOGNANI FABRIZIO M M1 20 180 BPM 02:06:20.40 15,20 02:06:20.40
158 ARDOLINO SAVERIO M M2 20 INDIVIDUALE 02:06:23.80 15,19 02:06:23.80
159 VEGGETTI ALBERTO M M4 26 MTB ADVENTURE BOLOGNA TEAM 02:06:25.40 15,19 02:06:25.40
160 MORDENTI CRISTIANO M M3 28 VENTURI ADVENTURE TEAM 02:06:25.40 15,19 02:06:25.40
161 CEVENINI STEFANO M M5 25 BAMBANA BIKE 02:06:29.20 15,18 02:06:29.20
162 GILLI MIRCO M M3 29 VERNIA BIKE TEAM ASD 02:06:42.60 15,15 02:06:42.60
163 CIVOLANI ALESSANDRO M M2 21 BAMBANA BIKE 02:06:54.80 15,13 02:06:54.80
164 LUDOVICO GIUSVA M M4 27 TEAM K-ONE ASD 02:07:12.60 15,09 02:07:12.60
165 GRANDI DANIELE M M4 28 VERNIA BIKE TEAM ASD 02:07:38.40 15,04 02:07:38.40
166 BALDI GIANNI M M4 29 SPARTANI 02:07:56.80 15,01 02:07:56.80
167 GUALANDI STEFANO M M5 26 TEAM K-ONE ASD 02:08:12.30 14,98 02:08:12.30
168 RIMONDI ROBERTO M M5 27 MTB LA RUPE 02:08:27.90 14,95 02:08:27.90
169 CHILLO TANIA F MW2 4 ASD IMOLA BIKE 02:10:56.40 14,66 02:10:56.40
170 CAPRA LUCIA PAOLA F MW2 5 TEAM PASSION FAENTINA 02:11:13.10 14,63 02:11:13.10
171 MINIERI GIOVANNI M M2 22 ASD C.C. M.LLO GIUSEPPE CAVAGNERO 02:11:51.20 14,56 02:11:51.20
172 PELLEGRINI MARCO M M7 8 BAMBANA BIKE 02:12:43.90 14,47 02:12:43.90
173 FILIPPUCCI GUSTAVO M M6 15 BAMBANA BIKE 02:13:10.90 14,42 02:13:10.90
174 CARATI STEFANO M M5 28 TEAM K-ONE ASD 02:14:38.60 14,26 02:14:38.60
175 MESSINA ANTONINO M M1 21 IEMA MTB TEAM 02:19:10.20 13,80 02:19:10.20
176 MORARA IVAN M M3 30 BAMBANA BIKE 02:19:15.90 13,79 02:19:15.90
177 BERTOCCHI MASSIMO M M4 30 TEAM K-ONE ASD 02:19:33.40 13,76 02:19:33.40
178 GAGLIANO CLARA F MW2 6 BAMBANA BIKE 02:19:35.90 13,76 02:19:35.90
179 BALDUCCI ANTONELLA F MW2 7 BARACCA LUGO MTB 02:19:37.70 13,75 02:19:37.70
180 MARCHIONI RICCARDO M M3 31 TEAM PASSION FAENTINA 02:22:18.50 13,49 02:22:18.50
181 FANTUZZI MANUEL M M4 31 MTB LA RUPE 02:22:19.40 13,49 02:22:19.40
182 BIONDI GABRIELE M M4 32 SPEED BIKE 02:23:24.40 13,39 02:23:24.40
183 BIANCHI ROBERTO M M5 29 BAMBANA BIKE 02:23:57.40 13,34 02:23:57.40
184 BABINI ETTORE M M3 32 VENTURI ADVENTURE TEAM 02:27:52.50 12,98 02:27:52.50
185 PIOLANTI PIER DOMENICO M M4 33 180 BPM 02:29:47.20 12,82 02:29:47.20
186 BARTOLINI SINCERO M M7 9 CICLI MATTEONI - BIANCHI 02:32:05.70 12,62 02:32:05.70
187 PUGLISI ALESSANDRO M M1 22 ASD BLACK ROAD 02:34:10.40 12,45 02:34:10.40
188 MARZADORI MICHELE M M5 30 MTB LA RUPE 02:42:19.30 11,83 02:42:19.30
189 GANDOLFI NICOLAS M M2 23 ASD GIANLUCA FAENZA TEAM 02:47:15.30 11,48 02:47:15.30
DNF DI LEVA PIETRO M M5 - BAMBANA BIKE - - -
DNF LEONI GERMANO M M5 - TEAM PASSION FAENTINA - - -
DNF SIROTTI MATTEO M M4 - AFTER SKULL ROUGE RACING - - -

CORTO - 15.0 Km

Pos Atleta Sesso Cat PosC Team Tempo Media RTime
Sq. TOZZI ALEX M ALL - 360 BIKE TEAM 00:41:43.20 21,57 00:41:43.20
1 RAVAIOLI MARCO M ALL 1 ASD COTEKINO OFF ROAD 00:46:57.90 19,17 00:46:57.90
2 MORABITO FILIPPO M ALL 2 ASD BICI CLUB MONTE SAN PIETRO 00:49:06.40 18,33 00:49:06.40
3 PENSERINI ELIA M ALL 3 ASD TEAM BIKE VALCONCA 00:52:46.20 17,06 00:52:46.20
4 MONTI MATTEO M ALL 4 ASD LE SALINE NATURA E SPORT 01:03:21.40 14,21 01:03:21.40
5 PENSERINI NICOLO´ M ES 1 ASD TEAM BIKE VALCONCA 01:03:39.20 14,14 01:03:39.20
6 MONTANARI SAVERIO M ES 2 ASD LE SALINE NATURA E SPORT 01:03:49.00 14,10 01:03:49.00
7 TAMPELLINI LUCA M ES 3 VITAMINA TEAM 01:15:59.80 11,84 01:15:59.80
8 TAMPELLINI MARCO M ES 4 VITAMINA TEAM 01:19:54.30 11,26 01:19:54.30